createdAt,value
2018-02-24T00:01:00.379Z,11.73
2018-02-24T00:03:30.320Z,11.70
2018-02-24T00:06:00.774Z,11.57
2018-02-24T00:08:30.530Z,12.95
2018-02-24T00:11:00.565Z,12.00
2018-02-24T00:13:30.359Z,11.52
2018-02-24T00:16:00.017Z,12.48
2018-02-24T00:18:29.717Z,13.32
2018-02-24T00:20:59.422Z,12.93
2018-02-24T00:23:29.212Z,13.38
2018-02-24T00:25:59.023Z,13.68
2018-02-24T00:28:28.871Z,13.82
2018-02-24T00:30:59.379Z,13.15
2018-02-24T00:33:29.105Z,14.10
2018-02-24T00:35:58.807Z,14.48
2018-02-24T00:38:28.757Z,13.62
2018-02-24T00:40:58.629Z,14.13
2018-02-24T00:43:28.408Z,13.32
2018-02-24T00:45:58.360Z,13.60
2018-02-24T00:48:28.825Z,14.45
2018-02-24T00:50:58.712Z,14.15
2018-02-24T00:53:28.530Z,15.00
2018-02-24T00:55:58.461Z,13.25
2018-02-24T00:58:28.996Z,14.90
2018-02-24T01:00:58.734Z,15.05
2018-02-24T01:03:29.230Z,13.55
2018-02-24T01:05:58.963Z,14.35
2018-02-24T01:08:28.709Z,14.87
2018-02-24T01:10:59.201Z,14.40
2018-02-24T01:13:29.025Z,13.30
2018-02-24T01:16:05.350Z,14.75
2018-02-24T01:18:35.772Z,14.98
2018-02-24T01:21:05.593Z,14.77
2018-02-24T01:23:35.440Z,14.55
2018-02-24T01:26:05.992Z,13.93
2018-02-24T01:28:36.460Z,14.23
2018-02-24T01:31:06.193Z,14.00
2018-02-24T01:33:35.879Z,15.23
2018-02-24T01:36:05.899Z,13.98
2018-02-24T01:38:35.647Z,14.80
2018-02-24T01:41:05.525Z,14.27
2018-02-24T01:43:35.255Z,14.60
2018-02-24T01:46:05.828Z,14.15
2018-02-24T01:48:35.621Z,13.95
2018-02-24T01:51:06.218Z,13.65
2018-02-24T01:53:35.973Z,14.82
2018-02-24T01:56:05.707Z,14.85
2018-02-24T01:58:36.210Z,14.07
2018-02-24T02:01:05.932Z,13.13
2018-02-24T02:03:39.586Z,13.95
2018-02-24T02:06:09.424Z,13.80
2018-02-24T02:08:39.912Z,13.50
2018-02-24T02:11:09.758Z,14.10
2018-02-24T02:13:39.436Z,14.93
2018-02-24T02:16:09.196Z,13.68
2018-02-24T02:18:38.917Z,14.32
2018-02-24T02:21:08.609Z,13.93
2018-02-24T02:23:38.368Z,15.48
2018-02-24T02:26:08.092Z,13.07
2018-02-24T02:28:38.089Z,14.77
2018-02-24T02:31:07.906Z,13.50
2018-02-24T02:33:37.647Z,14.18
2018-02-24T02:36:07.486Z,13.70
2018-02-24T02:38:37.215Z,14.55
2018-02-24T02:41:06.982Z,14.48
2018-02-24T02:43:36.820Z,14.63
2018-02-24T02:46:06.596Z,14.15
2018-02-24T02:48:36.438Z,14.60
2018-02-24T02:51:06.843Z,13.93
2018-02-24T02:53:36.540Z,14.55
2018-02-24T02:56:06.348Z,13.85
2018-02-24T02:58:36.106Z,13.60
2018-02-24T03:01:05.893Z,12.60
2018-02-24T03:03:42.412Z,15.18
2018-02-24T03:06:12.179Z,14.35
2018-02-24T03:08:41.945Z,14.52
2018-02-24T03:11:11.708Z,15.15
2018-02-24T03:13:42.251Z,14.63
2018-02-24T03:16:12.008Z,13.18
2018-02-24T03:18:41.706Z,13.88
2018-02-24T03:21:11.395Z,13.20
2018-02-24T03:23:41.132Z,14.25
2018-02-24T03:26:11.638Z,13.93
2018-02-24T03:28:41.361Z,15.02
2018-02-24T03:31:11.886Z,15.13
2018-02-24T03:33:41.773Z,13.65
2018-02-24T03:36:11.523Z,14.00
2018-02-24T03:38:41.202Z,14.93
2018-02-24T03:41:11.724Z,13.93
2018-02-24T03:43:41.407Z,13.73
2018-02-24T03:46:11.164Z,13.38
2018-02-24T03:48:40.987Z,14.07
2018-02-24T03:51:10.827Z,13.52
2018-02-24T03:53:41.448Z,15.60
2018-02-24T03:56:11.152Z,12.30
2018-02-24T03:58:40.888Z,12.98
2018-02-24T04:01:10.565Z,14.77
2018-02-24T04:03:40.377Z,14.25
2018-02-24T04:06:10.108Z,13.93
2018-02-24T04:08:39.803Z,14.23
2018-02-24T04:11:10.348Z,14.60
2018-02-24T04:13:40.880Z,14.13
2018-02-24T04:16:11.479Z,14.35
2018-02-24T04:18:41.173Z,14.18
2018-02-24T04:21:10.863Z,13.68
2018-02-24T04:23:41.573Z,14.95
2018-02-24T04:26:11.259Z,13.73
2018-02-24T04:28:40.992Z,14.65
2018-02-24T04:31:10.745Z,14.60
2018-02-24T04:33:40.456Z,14.57
2018-02-24T04:36:10.344Z,15.10
2018-02-24T04:38:40.053Z,13.07
2018-02-24T04:41:09.892Z,13.32
2018-02-24T04:43:39.600Z,14.40
2018-02-24T04:46:09.425Z,15.25
2018-02-24T04:48:39.906Z,13.32
2018-02-24T04:51:09.617Z,13.48
2018-02-24T04:53:39.312Z,14.87
2018-02-24T04:56:09.135Z,14.02
2018-02-24T04:58:38.866Z,13.25
2018-02-24T05:01:08.608Z,14.13
2018-02-24T05:03:38.392Z,14.68
2018-02-24T05:06:08.859Z,14.18
2018-02-24T05:08:38.695Z,13.95
2018-02-24T05:11:08.470Z,11.85
2018-02-24T05:13:38.945Z,13.13
2018-02-24T05:16:08.803Z,13.95
2018-02-24T05:18:38.552Z,14.87
2018-02-24T05:21:08.316Z,14.90
2018-02-24T05:23:38.110Z,12.05
2018-02-24T05:26:08.660Z,12.93
2018-02-24T05:28:39.195Z,12.82
2018-02-24T05:31:09.948Z,11.68
2018-02-24T05:33:40.436Z,14.63
2018-02-24T05:36:10.255Z,12.32
2018-02-24T05:38:40.117Z,14.43
2018-02-24T05:41:10.560Z,14.15
2018-02-24T05:43:41.204Z,13.85
2018-02-24T05:46:11.692Z,14.57
2018-02-24T05:48:41.638Z,12.85
2018-02-24T05:51:11.307Z,13.82
2018-02-24T05:53:41.070Z,11.12
2018-02-24T05:56:10.865Z,15.38
2018-02-24T05:58:40.606Z,13.35
2018-02-24T06:01:10.488Z,14.32
2018-02-24T06:03:40.996Z,13.32
2018-02-24T06:06:10.697Z,13.05
2018-02-24T06:08:40.540Z,13.70
2018-02-24T06:11:10.287Z,13.73
2018-02-24T06:13:40.814Z,14.40
2018-02-24T06:16:10.642Z,12.30
2018-02-24T06:18:40.433Z,12.77
2018-02-24T06:21:10.417Z,11.90
2018-02-24T06:23:41.848Z,14.20
2018-02-24T06:26:11.672Z,14.00
2018-02-24T06:28:42.680Z,14.70
2018-02-24T06:31:12.436Z,14.38
2018-02-24T06:33:43.296Z,12.75
2018-02-24T06:36:13.193Z,14.80
2018-02-24T06:38:43.787Z,14.57
2018-02-24T06:41:15.337Z,14.35
2018-02-24T06:43:45.408Z,14.48
2018-02-24T06:46:15.750Z,14.25
2018-02-24T06:48:45.757Z,14.32
2018-02-24T06:51:15.851Z,14.73
2018-02-24T06:53:45.716Z,12.27
2018-02-24T06:56:15.716Z,14.52
2018-02-24T06:58:45.661Z,12.77
2018-02-24T07:01:16.880Z,13.45
2018-02-24T07:03:46.646Z,12.80
2018-02-24T07:06:17.940Z,12.65
2018-02-24T07:08:47.718Z,13.57
2018-02-24T07:11:19.252Z,15.55
2018-02-24T07:13:48.930Z,12.45
2018-02-24T07:16:19.839Z,13.90
2018-02-24T07:18:50.370Z,12.30
2018-02-24T07:21:20.989Z,13.25
2018-02-24T07:23:50.837Z,12.55
2018-02-24T07:26:21.937Z,10.30
2018-02-24T07:28:52.099Z,14.98
2018-02-24T07:31:21.952Z,13.77
2018-02-24T07:33:52.907Z,13.50
2018-02-24T07:36:23.411Z,14.10
2018-02-24T07:38:53.806Z,13.90
2018-02-24T07:41:23.562Z,12.48
2018-02-24T07:43:53.734Z,11.85
2018-02-24T07:46:24.210Z,14.05
2018-02-24T07:48:54.624Z,13.25
2018-02-24T07:51:24.537Z,14.55
2018-02-24T07:53:55.457Z,13.00
2018-02-24T07:56:25.259Z,13.85
2018-02-24T07:58:57.210Z,12.35
2018-02-24T08:01:27.213Z,12.55
2018-02-24T08:03:58.270Z,12.77
2018-02-24T08:06:29.649Z,13.88
2018-02-24T08:08:59.796Z,12.30
2018-02-24T08:11:29.771Z,12.40
2018-02-24T08:14:00.284Z,12.07
2018-02-24T08:16:30.176Z,12.10
2018-02-24T08:19:00.157Z,13.10
2018-02-24T08:21:30.887Z,12.25
2018-02-24T08:24:00.633Z,12.93
2018-02-24T08:26:31.212Z,11.75
2018-02-24T08:29:00.946Z,10.35
2018-02-24T08:31:31.186Z,12.07
2018-02-24T08:34:01.694Z,12.52
2018-02-24T08:36:33.713Z,12.55
2018-02-24T08:39:03.561Z,12.25
2018-02-24T08:41:36.563Z,11.20
2018-02-24T08:44:06.356Z,11.52
2018-02-24T08:46:37.760Z,9.60
2018-02-24T08:49:07.666Z,11.12
2018-02-24T08:51:38.438Z,10.68
2018-02-24T08:54:09.398Z,11.18
2018-02-24T08:56:39.426Z,10.75
2018-02-24T08:59:10.774Z,10.52
2018-02-24T09:01:40.632Z,10.38
2018-02-24T09:04:12.224Z,10.85
2018-02-24T09:06:42.117Z,10.35
2018-02-24T09:09:13.088Z,9.80
2018-02-24T09:11:43.003Z,10.18
2018-02-24T09:14:14.848Z,11.48
2018-02-24T09:16:45.564Z,11.60
2018-02-24T09:19:15.897Z,8.98
2018-02-24T09:21:45.769Z,10.73
2018-02-24T09:24:16.552Z,10.43
2018-02-24T09:26:47.447Z,10.30
2018-02-24T09:29:17.299Z,9.85
2018-02-24T09:31:47.223Z,9.07
2018-02-24T09:34:18.008Z,10.68
2018-02-24T09:36:48.455Z,10.77
2018-02-24T09:39:19.044Z,8.23
2018-02-24T09:41:49.919Z,10.65
2018-02-24T09:44:19.650Z,10.25
2018-02-24T09:46:50.897Z,9.40
2018-02-24T09:49:20.728Z,9.48
2018-02-24T09:51:51.465Z,10.10
2018-02-24T09:54:22.197Z,9.23
2018-02-24T09:56:52.881Z,9.05
2018-02-24T09:59:22.609Z,7.82
2018-02-24T10:01:53.795Z,10.75
2018-02-24T10:04:24.312Z,8.82
2018-02-24T10:06:54.946Z,9.98
2018-02-24T10:09:25.462Z,8.35
2018-02-24T10:11:55.408Z,8.80
2018-02-24T10:14:25.323Z,9.02
2018-02-24T10:16:55.342Z,8.82
2018-02-24T10:19:25.166Z,6.97
2018-02-24T10:21:55.228Z,10.18
2018-02-24T10:24:25.032Z,8.15
2018-02-24T10:26:55.371Z,9.25
2018-02-24T10:29:25.432Z,9.30
2018-02-24T10:31:56.025Z,8.55
2018-02-24T10:34:26.755Z,8.95
2018-02-24T10:36:56.696Z,8.48
2018-02-24T10:39:26.950Z,9.43
2018-02-24T10:41:56.868Z,9.25
2018-02-24T10:44:27.641Z,8.93
2018-02-24T10:46:57.507Z,9.18
2018-02-24T10:49:28.819Z,8.50
2018-02-24T10:51:59.454Z,8.05
2018-02-24T10:54:30.100Z,9.70
2018-02-24T10:57:00.021Z,8.77
2018-02-24T10:59:31.303Z,9.40
2018-02-24T11:02:01.857Z,8.80
2018-02-24T11:04:32.454Z,7.62
2018-02-24T11:07:02.238Z,8.23
2018-02-24T11:09:32.047Z,8.25
2018-02-24T11:12:01.765Z,7.82
2018-02-24T11:14:31.563Z,7.72
2018-02-24T11:17:01.272Z,7.75
2018-02-24T11:19:31.008Z,9.13
2018-02-24T11:22:00.785Z,8.15
2018-02-24T11:24:31.194Z,7.95
2018-02-24T11:27:01.851Z,7.90
2018-02-24T11:29:31.574Z,7.65
2018-02-24T11:32:01.344Z,7.85
2018-02-24T11:34:31.282Z,7.22
2018-02-24T11:37:01.035Z,6.82
2018-02-24T11:39:34.931Z,7.25
2018-02-24T11:42:04.349Z,6.57
2018-02-24T11:44:34.908Z,6.60
2018-02-24T11:47:05.506Z,6.35
2018-02-24T11:49:36.288Z,6.28
2018-02-24T11:52:06.791Z,6.30
2018-02-24T11:54:36.598Z,6.78
2018-02-24T11:57:06.467Z,5.45
2018-02-24T11:59:37.098Z,6.22
2018-02-24T12:02:06.919Z,4.93
2018-02-24T12:04:36.769Z,5.03
2018-02-24T12:07:07.301Z,5.78
2018-02-24T12:09:37.165Z,6.00
2018-02-24T12:12:07.017Z,5.35
2018-02-24T12:14:36.923Z,5.43
2018-02-24T12:17:06.675Z,4.75
2018-02-24T12:19:36.509Z,4.90
2018-02-24T12:22:06.538Z,5.60
2018-02-24T12:24:36.328Z,5.30
2018-02-24T12:27:06.449Z,5.35
2018-02-24T12:29:36.269Z,5.07
2018-02-24T12:32:06.033Z,4.07
2018-02-24T12:34:35.921Z,5.05
2018-02-24T12:37:05.653Z,5.57
2018-02-24T12:39:35.601Z,4.30
2018-02-24T12:42:05.652Z,5.47
2018-02-24T12:44:36.436Z,4.80
2018-02-24T12:47:06.616Z,5.32
2018-02-24T12:49:36.662Z,5.57
2018-02-24T12:52:06.533Z,4.93
2018-02-24T12:54:36.308Z,6.10
2018-02-24T12:57:06.215Z,5.68
2018-02-24T12:59:36.140Z,5.37
2018-02-24T13:02:06.034Z,5.30
2018-02-24T13:04:35.864Z,5.35
2018-02-24T13:07:05.586Z,5.53
2018-02-24T13:09:35.521Z,5.32
2018-02-24T13:12:05.283Z,4.97
2018-02-24T13:14:35.906Z,5.90
2018-02-24T13:17:05.771Z,5.25
2018-02-24T13:19:35.676Z,5.07
2018-02-24T13:22:06.157Z,4.22
2018-02-24T13:24:35.980Z,3.67
2018-02-24T13:27:05.834Z,4.32
2018-02-24T13:29:35.843Z,4.55
2018-02-24T13:32:05.715Z,4.30
2018-02-24T13:34:37.648Z,4.50
2018-02-24T13:37:09.781Z,3.40
2018-02-24T13:39:40.966Z,4.10
2018-02-24T13:42:11.607Z,3.83
2018-02-24T13:44:42.998Z,3.65
2018-02-24T13:47:13.107Z,3.50
2018-02-24T13:49:43.071Z,3.30
2018-02-24T13:52:13.534Z,3.67
2018-02-24T13:54:43.323Z,3.50
2018-02-24T13:57:13.611Z,3.40
2018-02-24T13:59:43.423Z,3.97
2018-02-24T14:02:13.570Z,3.85
2018-02-24T14:04:43.364Z,3.30
2018-02-24T14:07:13.290Z,3.35
2018-02-24T14:09:43.822Z,3.33
2018-02-24T14:12:13.780Z,3.35
2018-02-24T14:14:44.211Z,3.30
2018-02-24T14:17:14.823Z,3.33
2018-02-24T14:19:44.600Z,3.55
2018-02-24T14:22:14.402Z,3.58
2018-02-24T14:24:44.396Z,3.72
2018-02-24T14:27:14.217Z,2.90
2018-02-24T14:29:44.584Z,3.28
2018-02-24T14:32:14.351Z,3.53
2018-02-24T14:34:44.254Z,3.87
2018-02-24T14:37:14.104Z,3.75
2018-02-24T14:39:44.105Z,4.18
2018-02-24T14:42:14.260Z,3.25
2018-02-24T14:44:44.593Z,4.03
2018-02-24T14:47:14.465Z,2.87
2018-02-24T14:49:44.735Z,3.92
2018-02-24T14:52:15.506Z,3.72
2018-02-24T14:54:45.399Z,4.78
2018-02-24T14:57:15.228Z,3.85
2018-02-24T14:59:45.139Z,4.50
2018-02-24T15:02:15.750Z,4.07
2018-02-24T15:04:45.500Z,4.05
2018-02-24T15:07:15.557Z,4.00
2018-02-24T15:09:45.469Z,4.12
2018-02-24T15:12:16.442Z,3.12
2018-02-24T15:14:46.222Z,4.40
2018-02-24T15:17:17.056Z,4.37
2018-02-24T15:19:46.896Z,4.07
2018-02-24T15:22:17.765Z,4.35
2018-02-24T15:24:48.047Z,5.10
2018-02-24T15:27:18.475Z,4.20
2018-02-24T15:29:48.721Z,4.43
2018-02-24T15:32:19.011Z,4.75
2018-02-24T15:34:49.097Z,4.28
2018-02-24T15:37:20.107Z,5.20
2018-02-24T15:39:50.365Z,5.03
2018-02-24T15:42:20.609Z,5.85
2018-02-24T15:44:50.970Z,5.50
2018-02-24T15:47:21.550Z,5.65
2018-02-24T15:49:52.444Z,5.35
2018-02-24T15:52:23.247Z,5.40
2018-02-24T15:54:53.874Z,5.53
2018-02-24T15:57:24.268Z,5.35
2018-02-24T15:59:55.138Z,6.03
2018-02-24T16:02:25.405Z,5.75
2018-02-24T16:04:55.784Z,5.65
2018-02-24T16:07:26.323Z,5.62
2018-02-24T16:09:56.400Z,5.65
2018-02-24T16:12:26.631Z,6.00
2018-02-24T16:14:56.725Z,5.15
2018-02-24T16:17:27.449Z,5.50
2018-02-24T16:19:58.185Z,5.87
2018-02-24T16:22:28.029Z,6.25
2018-02-24T16:24:58.008Z,6.18
2018-02-24T16:27:28.372Z,5.78
2018-02-24T16:29:58.156Z,5.22
2018-02-24T16:32:27.972Z,6.03
2018-02-24T16:34:57.924Z,4.87
2018-02-24T16:37:28.016Z,4.65
2018-02-24T16:39:58.453Z,5.25
2018-02-24T16:42:29.247Z,4.75
2018-02-24T16:44:58.961Z,5.18
2018-02-24T16:47:29.344Z,4.85
2018-02-24T16:49:59.099Z,5.30
2018-02-24T16:52:28.910Z,5.05
2018-02-24T16:54:58.782Z,4.95
2018-02-24T16:57:28.757Z,4.70
2018-02-24T16:59:59.249Z,4.45
2018-02-24T17:02:29.197Z,4.70
2018-02-24T17:04:58.995Z,4.10
2018-02-24T17:07:29.010Z,4.10
2018-02-24T17:09:59.152Z,4.18
2018-02-24T17:12:29.061Z,3.83
2018-02-24T17:14:59.339Z,3.95
2018-02-24T17:17:29.196Z,3.90
2018-02-24T17:19:59.355Z,3.65
2018-02-24T17:22:29.282Z,3.67
2018-02-24T17:25:00.054Z,3.80
2018-02-24T17:27:30.081Z,3.65
2018-02-24T17:30:00.540Z,3.65
2018-02-24T17:32:30.305Z,3.47
2018-02-24T17:35:00.177Z,3.70
2018-02-24T17:37:30.035Z,3.30
2018-02-24T17:40:00.724Z,3.10
2018-02-24T17:42:31.650Z,3.28
2018-02-24T17:45:01.430Z,3.15
2018-02-24T17:47:31.359Z,3.05
2018-02-24T17:50:01.069Z,3.12
2018-02-24T17:52:30.821Z,3.03
2018-02-24T17:55:01.357Z,3.20
2018-02-24T17:57:31.174Z,3.17
2018-02-24T18:00:00.970Z,3.25
2018-02-24T18:02:30.904Z,3.28
2018-02-24T18:05:00.707Z,2.85
2018-02-24T18:07:30.718Z,2.87
2018-02-24T18:10:00.665Z,2.40
2018-02-24T18:12:30.666Z,2.87
2018-02-24T18:15:00.680Z,2.92
2018-02-24T18:17:30.637Z,3.17
2018-02-24T18:20:00.749Z,2.78
2018-02-24T18:22:30.581Z,2.83
2018-02-24T18:25:00.451Z,2.80
2018-02-24T18:27:30.514Z,2.75
2018-02-24T18:30:01.477Z,2.33
2018-02-24T18:32:31.346Z,2.53
2018-02-24T18:35:02.486Z,2.05
2018-02-24T18:37:32.296Z,2.53
2018-02-24T18:40:03.045Z,2.25
2018-02-24T18:42:32.953Z,2.12
2018-02-24T18:45:03.868Z,2.08
2018-02-24T18:47:33.819Z,1.90
2018-02-24T18:50:06.545Z,2.40
2018-02-24T18:52:36.369Z,1.77
2018-02-24T18:55:07.321Z,2.10
2018-02-24T18:57:37.960Z,2.55
2018-02-24T19:00:08.278Z,2.08
2018-02-24T19:02:38.349Z,1.58
2018-02-24T19:05:09.207Z,2.70
2018-02-24T19:07:39.537Z,2.05
2018-02-24T19:10:09.301Z,2.35
2018-02-24T19:12:42.250Z,1.45
2018-02-24T19:15:12.025Z,1.55
2018-02-24T19:17:43.664Z,1.85
2018-02-24T19:20:13.715Z,1.75
2018-02-24T19:22:44.479Z,2.10
2018-02-24T19:25:16.262Z,1.87
2018-02-24T19:27:46.470Z,1.83
2018-02-24T19:30:19.312Z,1.87
2018-02-24T19:32:49.252Z,1.50
2018-02-24T19:35:19.591Z,2.10
2018-02-24T19:37:49.928Z,1.62
2018-02-24T19:40:20.724Z,2.00
2018-02-24T19:42:51.332Z,1.95
2018-02-24T19:45:22.070Z,1.80
2018-02-24T19:47:52.309Z,2.33
2018-02-24T19:50:22.097Z,1.98
2018-02-24T19:52:51.861Z,2.17
2018-02-24T19:55:22.087Z,1.60
2018-02-24T19:57:51.848Z,1.55
2018-02-24T20:00:22.595Z,2.00
2018-02-24T20:02:53.230Z,1.95
2018-02-24T20:05:23.441Z,2.33
2018-02-24T20:07:54.584Z,1.95
2018-02-24T20:10:25.384Z,2.10
2018-02-24T20:12:56.062Z,1.90
2018-02-24T20:15:26.332Z,1.87
2018-02-24T20:17:56.853Z,2.20
2018-02-24T20:20:26.963Z,2.22
2018-02-24T20:22:56.798Z,1.77
2018-02-24T20:25:28.721Z,2.10
2018-02-24T20:27:59.754Z,1.80
2018-02-24T20:30:30.738Z,2.35
2018-02-24T20:33:01.136Z,2.03
2018-02-24T20:35:31.006Z,2.17
2018-02-24T20:38:02.443Z,1.90
2018-02-24T20:40:32.367Z,1.95
2018-02-24T20:43:03.759Z,1.83
2018-02-24T20:45:35.930Z,1.95
2018-02-24T20:48:05.876Z,1.98
2018-02-24T20:50:38.012Z,1.87
2018-02-24T20:53:08.547Z,1.62
2018-02-24T20:55:39.269Z,1.77
2018-02-24T20:58:09.851Z,2.10
2018-02-24T21:00:39.705Z,1.85
2018-02-24T21:03:10.324Z,1.90
2018-02-24T21:05:40.150Z,1.77
2018-02-24T21:08:10.042Z,1.80
2018-02-24T21:10:39.833Z,1.60
2018-02-24T21:13:09.814Z,1.75
2018-02-24T21:15:41.008Z,1.85
2018-02-24T21:18:10.854Z,1.92
2018-02-24T21:20:40.742Z,1.98
2018-02-24T21:23:10.799Z,2.10
2018-02-24T21:25:40.876Z,2.03
2018-02-24T21:28:10.685Z,2.12
2018-02-24T21:30:40.572Z,2.10
2018-02-24T21:33:10.346Z,1.90
2018-02-24T21:35:40.340Z,1.67
2018-02-24T21:38:10.088Z,2.22
2018-02-24T21:40:40.680Z,1.98
2018-02-24T21:43:10.455Z,2.28
2018-02-24T21:45:40.305Z,2.28
2018-02-24T21:48:10.281Z,2.00
2018-02-24T21:50:40.036Z,1.98
2018-02-24T21:53:09.837Z,2.50
2018-02-24T21:55:39.652Z,1.92
2018-02-24T21:58:09.564Z,2.10
2018-02-24T22:00:39.324Z,1.95
2018-02-24T22:03:10.002Z,1.98
2018-02-24T22:05:39.820Z,2.10
2018-02-24T22:08:09.697Z,1.90
2018-02-24T22:10:39.456Z,2.25
2018-02-24T22:13:09.217Z,2.00
2018-02-24T22:15:39.032Z,2.30
2018-02-24T22:18:08.788Z,2.47
2018-02-24T22:20:38.705Z,1.45
2018-02-24T22:23:08.499Z,2.30
2018-02-24T22:25:38.257Z,2.37
2018-02-24T22:28:08.197Z,2.30
2018-02-24T22:30:38.008Z,2.00
2018-02-24T22:33:07.828Z,2.00
2018-02-24T22:35:37.776Z,2.37
2018-02-24T22:38:07.598Z,1.98
2018-02-24T22:40:37.462Z,2.08
2018-02-24T22:43:07.536Z,2.37
2018-02-24T22:45:37.315Z,2.25
2018-02-24T22:48:11.096Z,2.08
2018-02-24T22:50:40.919Z,2.10
2018-02-24T22:53:10.681Z,1.85
2018-02-24T22:55:40.528Z,2.10
2018-02-24T22:58:10.295Z,2.22
2018-02-24T23:00:40.056Z,2.22
2018-02-24T23:03:09.781Z,1.70
2018-02-24T23:05:39.498Z,2.05
2018-02-24T23:08:09.216Z,2.47
2018-02-24T23:10:38.920Z,2.37
2018-02-24T23:13:09.502Z,2.37
2018-02-24T23:15:39.206Z,2.60
2018-02-24T23:18:09.874Z,2.25
2018-02-24T23:20:40.143Z,2.60
2018-02-24T23:23:10.702Z,2.25
2018-02-24T23:25:41.211Z,2.30
2018-02-24T23:28:10.964Z,2.40
2018-02-24T23:30:40.668Z,2.70
2018-02-24T23:33:11.220Z,2.50
2018-02-24T23:35:40.949Z,2.33
2018-02-24T23:38:10.698Z,2.45
2018-02-24T23:40:40.597Z,2.33
2018-02-24T23:43:11.328Z,2.60
2018-02-24T23:45:41.811Z,2.58
2018-02-24T23:48:11.514Z,2.75
2018-02-24T23:50:41.408Z,2.40
2018-02-24T23:53:11.932Z,2.60
2018-02-24T23:55:41.828Z,2.65
2018-02-24T23:58:11.540Z,1.87
